KZR991 UAAA-UACC
Flight info
| Callsign | KZR991 |
|---|---|
| Flight time | N/A |
| Altitude | 34000 |
| Route | ETEDA1J ETEDA W333 BANOS BANOS1D |
| Aircraft | A21N/M-SDE2E3FGHIRWXY/LB1 |
Departure
| Time | 2026-05-05 16:27 |
|---|---|
| Airport | Almaty International Airport (UAAA) |
Arrival
| Time | N/A |
|---|---|
| Airport | Nursultan Nazarbayev International Airport (UACC) |
| Time | Latitude | Longitude | Altitude | Speed | Heading |
|---|---|---|---|---|---|
| 2026-05-05 16:15 | 43.34685 | 77.01324 | 2249 ft | 0 kts | 245° |
| 2026-05-05 16:19 | 43.34689 | 77.01335 | 2249 ft | 2 kts | 234° |
| 2026-05-05 16:19 | 43.34697 | 77.01354 | 2249 ft | 2 kts | 249° |
| 2026-05-05 16:19 | 43.34707 | 77.01385 | 2249 ft | 1 kts | 245° |
| 2026-05-05 16:20 | 43.34729 | 77.01408 | 2249 ft | 2 kts | 179° |
| 2026-05-05 16:20 | 43.34746 | 77.01401 | 2249 ft | 0 kts | 154° |
| 2026-05-05 16:22 | 43.34745 | 77.01401 | 2248 ft | 0 kts | 154° |
| 2026-05-05 16:22 | 43.34742 | 77.01403 | 2248 ft | 2 kts | 154° |
| 2026-05-05 16:23 | 43.34682 | 77.01437 | 2248 ft | 5 kts | 159° |
| 2026-05-05 16:23 | 43.34642 | 77.01457 | 2248 ft | 7 kts | 166° |
| 2026-05-05 16:23 | 43.34518 | 77.01505 | 2248 ft | 11 kts | 157° |
| 2026-05-05 16:24 | 43.34441 | 77.01552 | 2248 ft | 12 kts | 156° |
| 2026-05-05 16:24 | 43.34357 | 77.01609 | 2248 ft | 13 kts | 153° |
| 2026-05-05 16:24 | 43.34258 | 77.01671 | 2248 ft | 0 kts | 156° |
| 2026-05-05 16:25 | 43.34257 | 77.01671 | 2248 ft | 0 kts | 156° |
| 2026-05-05 16:26 | 43.34170 | 77.01749 | 2248 ft | 11 kts | 121° |
| 2026-05-05 16:26 | 43.34203 | 77.01910 | 2249 ft | 25 kts | 56° |
| 2026-05-05 16:27 | 43.34446 | 77.02402 | 2249 ft | 97 kts | 56° |
| 2026-05-05 16:27 | 43.34948 | 77.03419 | 2249 ft | 156 kts | 56° |
| 2026-05-05 16:27 | 43.35632 | 77.04800 | 2388 ft | 188 kts | 57° |
| 2026-05-05 16:27 | 43.36362 | 77.06287 | 2986 ft | 191 kts | 57° |
| 2026-05-05 16:28 | 43.37114 | 77.07752 | 3706 ft | 190 kts | 55° |
| 2026-05-05 16:28 | 43.38037 | 77.08980 | 4347 ft | 190 kts | 25° |
| 2026-05-05 16:28 | 43.39369 | 77.09052 | 4645 ft | 206 kts | 338° |
| 2026-05-05 16:28 | 43.40626 | 77.07976 | 4994 ft | 221 kts | 326° |
| 2026-05-05 16:29 | 43.42027 | 77.06949 | 5319 ft | 238 kts | 336° |
| 2026-05-05 16:29 | 43.43637 | 77.06029 | 5605 ft | 260 kts | 338° |
| 2026-05-05 16:29 | 43.45367 | 77.05083 | 6007 ft | 276 kts | 338° |
| 2026-05-05 16:29 | 43.47198 | 77.04073 | 6615 ft | 284 kts | 338° |
| 2026-05-05 16:30 | 43.49014 | 77.03055 | 7330 ft | 286 kts | 338° |
| 2026-05-05 16:30 | 43.50861 | 77.02008 | 8034 ft | 288 kts | 338° |
| 2026-05-05 16:30 | 43.52721 | 77.00948 | 8778 ft | 291 kts | 338° |
| 2026-05-05 16:30 | 43.54587 | 76.99880 | 9431 ft | 294 kts | 338° |
| 2026-05-05 16:31 | 43.56465 | 76.98804 | 10072 ft | 297 kts | 338° |
| 2026-05-05 16:31 | 43.58379 | 76.97704 | 10666 ft | 304 kts | 338° |
| 2026-05-05 16:31 | 43.60384 | 76.96551 | 10980 ft | 320 kts | 338° |
| 2026-05-05 16:31 | 43.62505 | 76.95330 | 11249 ft | 336 kts | 338° |
| 2026-05-05 16:32 | 43.64671 | 76.94082 | 11720 ft | 343 kts | 338° |
| 2026-05-05 16:32 | 43.66881 | 76.92806 | 12363 ft | 346 kts | 338° |
| 2026-05-05 16:32 | 43.69085 | 76.91531 | 12955 ft | 349 kts | 338° |
| 2026-05-05 16:32 | 43.71354 | 76.90218 | 13551 ft | 353 kts | 338° |
| 2026-05-05 16:33 | 43.73602 | 76.88916 | 14125 ft | 356 kts | 338° |
| 2026-05-05 16:33 | 43.75883 | 76.87595 | 14691 ft | 359 kts | 338° |
| 2026-05-05 16:33 | 43.78213 | 76.86243 | 15266 ft | 362 kts | 338° |
| 2026-05-05 16:33 | 43.80525 | 76.84903 | 15800 ft | 366 kts | 338° |
| 2026-05-05 16:34 | 43.82863 | 76.83545 | 16312 ft | 370 kts | 338° |
| 2026-05-05 16:34 | 43.85247 | 76.82159 | 16843 ft | 373 kts | 338° |
| 2026-05-05 16:34 | 43.87647 | 76.80763 | 17385 ft | 376 kts | 338° |
| 2026-05-05 16:34 | 43.90072 | 76.79352 | 17844 ft | 380 kts | 338° |
| 2026-05-05 16:35 | 43.92503 | 76.77935 | 18324 ft | 383 kts | 338° |
| 2026-05-05 16:35 | 43.94975 | 76.76494 | 18853 ft | 385 kts | 338° |
| 2026-05-05 16:35 | 43.97453 | 76.75047 | 19363 ft | 387 kts | 338° |
| 2026-05-05 16:35 | 43.99925 | 76.73602 | 19829 ft | 390 kts | 338° |
| 2026-05-05 16:36 | 44.02433 | 76.72134 | 20320 ft | 392 kts | 338° |
| 2026-05-05 16:36 | 44.04943 | 76.70664 | 20793 ft | 393 kts | 338° |
| 2026-05-05 16:36 | 44.07447 | 76.69197 | 21259 ft | 395 kts | 338° |
| 2026-05-05 16:36 | 44.10009 | 76.67693 | 21712 ft | 397 kts | 338° |
| 2026-05-05 16:37 | 44.12524 | 76.66216 | 22137 ft | 399 kts | 338° |
| 2026-05-05 16:37 | 44.15114 | 76.64694 | 22567 ft | 401 kts | 337° |
| 2026-05-05 16:37 | 44.17678 | 76.63185 | 22986 ft | 403 kts | 337° |
| 2026-05-05 16:37 | 44.20270 | 76.61656 | 23382 ft | 405 kts | 337° |
| 2026-05-05 16:38 | 44.22853 | 76.60132 | 23779 ft | 407 kts | 337° |
| 2026-05-05 16:38 | 44.25438 | 76.58604 | 24191 ft | 408 kts | 337° |
| 2026-05-05 16:38 | 44.28068 | 76.57050 | 24599 ft | 410 kts | 337° |
| 2026-05-05 16:38 | 44.30683 | 76.55501 | 24989 ft | 411 kts | 337° |
| 2026-05-05 16:39 | 44.33322 | 76.53939 | 25353 ft | 413 kts | 337° |
| 2026-05-05 16:39 | 44.35969 | 76.52386 | 25689 ft | 415 kts | 337° |
| 2026-05-05 16:39 | 44.38616 | 76.50848 | 26018 ft | 417 kts | 338° |
| 2026-05-05 16:39 | 44.41286 | 76.49295 | 26359 ft | 418 kts | 338° |
| 2026-05-05 16:40 | 44.43996 | 76.47717 | 26703 ft | 419 kts | 337° |
| 2026-05-05 16:40 | 44.46663 | 76.46162 | 27023 ft | 421 kts | 337° |
| 2026-05-05 16:40 | 44.49374 | 76.44577 | 27325 ft | 423 kts | 337° |
| 2026-05-05 16:40 | 44.52073 | 76.42998 | 27626 ft | 424 kts | 337° |
| 2026-05-05 16:41 | 44.54807 | 76.41395 | 27907 ft | 426 kts | 337° |
| 2026-05-05 16:41 | 44.57555 | 76.39781 | 28201 ft | 428 kts | 337° |
| 2026-05-05 16:41 | 44.60308 | 76.38164 | 28492 ft | 430 kts | 337° |
| 2026-05-05 16:41 | 44.63063 | 76.36544 | 28762 ft | 432 kts | 337° |
| 2026-05-05 16:42 | 44.65830 | 76.34914 | 29031 ft | 434 kts | 336° |
| 2026-05-05 16:42 | 44.68596 | 76.33282 | 29289 ft | 436 kts | 336° |
| 2026-05-05 16:42 | 44.71407 | 76.31622 | 29536 ft | 438 kts | 336° |
| 2026-05-05 16:42 | 44.74218 | 76.29961 | 29811 ft | 440 kts | 336° |
| 2026-05-05 16:43 | 44.77026 | 76.28300 | 30094 ft | 441 kts | 336° |
| 2026-05-05 16:43 | 44.79826 | 76.26643 | 30382 ft | 442 kts | 336° |
| 2026-05-05 16:43 | 44.82674 | 76.24953 | 30672 ft | 443 kts | 336° |
| 2026-05-05 16:43 | 44.85509 | 76.23271 | 30943 ft | 444 kts | 337° |
| 2026-05-05 16:44 | 44.88333 | 76.21594 | 31187 ft | 445 kts | 337° |
| 2026-05-05 16:44 | 44.91204 | 76.19886 | 31476 ft | 445 kts | 337° |
| 2026-05-05 16:44 | 44.94023 | 76.18207 | 31822 ft | 444 kts | 337° |
| 2026-05-05 16:44 | 44.96880 | 76.16503 | 32166 ft | 443 kts | 337° |
| 2026-05-05 16:45 | 44.99706 | 76.14819 | 32484 ft | 442 kts | 337° |
| 2026-05-05 16:45 | 45.02504 | 76.13150 | 32794 ft | 441 kts | 337° |
| 2026-05-05 16:45 | 45.05349 | 76.11450 | 33114 ft | 441 kts | 337° |
| 2026-05-05 16:45 | 45.08165 | 76.09766 | 33431 ft | 440 kts | 337° |
| 2026-05-05 16:46 | 45.10937 | 76.08103 | 33754 ft | 438 kts | 338° |
| 2026-05-05 16:46 | 45.13765 | 76.06407 | 34083 ft | 437 kts | 338° |
| 2026-05-05 16:46 | 45.16547 | 76.04736 | 34393 ft | 436 kts | 338° |
| 2026-05-05 16:46 | 45.19325 | 76.03067 | 34652 ft | 435 kts | 338° |
| 2026-05-05 16:47 | 45.22072 | 76.01416 | 34901 ft | 434 kts | 338° |
| 2026-05-05 16:47 | 45.24847 | 75.99746 | 35148 ft | 433 kts | 337° |
| 2026-05-05 16:47 | 45.27622 | 75.98073 | 35380 ft | 432 kts | 337° |
| 2026-05-05 16:47 | 45.30387 | 75.96403 | 35580 ft | 432 kts | 337° |
| 2026-05-05 16:48 | 45.33131 | 75.94745 | 35767 ft | 432 kts | 337° |
| 2026-05-05 16:48 | 45.35878 | 75.93083 | 35935 ft | 433 kts | 337° |
| 2026-05-05 16:48 | 45.38625 | 75.91419 | 36107 ft | 433 kts | 337° |
| 2026-05-05 16:48 | 45.41408 | 75.89733 | 36270 ft | 433 kts | 337° |
| 2026-05-05 16:49 | 45.44165 | 75.88060 | 36432 ft | 433 kts | 337° |
| 2026-05-05 16:49 | 45.46920 | 75.86386 | 36608 ft | 434 kts | 337° |
| 2026-05-05 16:49 | 45.49717 | 75.84685 | 36761 ft | 435 kts | 337° |
| 2026-05-05 16:49 | 45.52475 | 75.83004 | 36928 ft | 436 kts | 337° |
| 2026-05-05 16:50 | 45.55253 | 75.81311 | 37109 ft | 436 kts | 337° |
| 2026-05-05 16:50 | 45.58053 | 75.79601 | 37114 ft | 436 kts | 337° |
| 2026-05-05 16:50 | 45.63614 | 75.76198 | 37114 ft | 435 kts | 336° |
| 2026-05-05 16:51 | 45.69138 | 75.72810 | 37127 ft | 435 kts | 337° |
| 2026-05-05 16:51 | 45.74680 | 75.69412 | 37122 ft | 435 kts | 337° |
| 2026-05-05 16:52 | 45.80243 | 75.66004 | 37121 ft | 434 kts | 336° |
| 2026-05-05 16:52 | 45.85774 | 75.62601 | 37122 ft | 435 kts | 336° |
| 2026-05-05 16:53 | 45.91316 | 75.59180 | 37123 ft | 435 kts | 336° |
| 2026-05-05 16:53 | 45.96848 | 75.55757 | 37124 ft | 435 kts | 336° |
| 2026-05-05 16:54 | 46.02408 | 75.52309 | 37117 ft | 435 kts | 336° |
| 2026-05-05 16:54 | 46.07923 | 75.48879 | 37124 ft | 435 kts | 336° |
| 2026-05-05 16:55 | 46.13467 | 75.45422 | 37123 ft | 436 kts | 336° |
| 2026-05-05 16:55 | 46.19018 | 75.41952 | 37123 ft | 436 kts | 336° |
| 2026-05-05 16:56 | 46.24584 | 75.38481 | 37123 ft | 436 kts | 336° |
| 2026-05-05 16:56 | 46.30152 | 75.35034 | 37120 ft | 437 kts | 336° |
| 2026-05-05 16:57 | 46.35714 | 75.31576 | 37125 ft | 436 kts | 335° |
| 2026-05-05 16:57 | 46.41250 | 75.28123 | 37120 ft | 436 kts | 335° |
| 2026-05-05 16:58 | 46.46816 | 75.24641 | 37115 ft | 436 kts | 335° |
| 2026-05-05 16:58 | 46.52382 | 75.21151 | 37119 ft | 437 kts | 335° |
| 2026-05-05 16:59 | 46.57933 | 75.17660 | 37127 ft | 437 kts | 335° |
| 2026-05-05 16:59 | 46.63490 | 75.14159 | 37127 ft | 437 kts | 335° |
| 2026-05-05 17:00 | 46.69050 | 75.10648 | 37134 ft | 437 kts | 335° |
| 2026-05-05 17:00 | 46.74622 | 75.07121 | 37134 ft | 437 kts | 335° |
| 2026-05-05 17:01 | 46.80187 | 75.03588 | 37132 ft | 437 kts | 335° |
| 2026-05-05 17:01 | 46.85726 | 75.00064 | 37135 ft | 437 kts | 335° |
| 2026-05-05 17:02 | 46.91342 | 74.96734 | 37139 ft | 438 kts | 338° |
| 2026-05-05 17:02 | 46.97046 | 74.93609 | 37141 ft | 438 kts | 338° |
| 2026-05-05 17:03 | 47.02731 | 74.90488 | 37135 ft | 438 kts | 338° |
| 2026-05-05 17:03 | 47.08420 | 74.87347 | 37143 ft | 438 kts | 338° |
| 2026-05-05 17:04 | 47.14120 | 74.84192 | 37139 ft | 438 kts | 338° |
| 2026-05-05 17:04 | 47.19801 | 74.81036 | 37143 ft | 438 kts | 338° |
| 2026-05-05 17:05 | 47.25496 | 74.77868 | 37146 ft | 438 kts | 338° |
| 2026-05-05 17:05 | 47.31142 | 74.74716 | 37149 ft | 438 kts | 338° |
| 2026-05-05 17:06 | 47.36855 | 74.71519 | 37151 ft | 438 kts | 338° |
| 2026-05-05 17:06 | 47.42504 | 74.68350 | 37152 ft | 438 kts | 338° |
| 2026-05-05 17:07 | 47.48190 | 74.65150 | 37158 ft | 438 kts | 338° |
| 2026-05-05 17:07 | 47.53873 | 74.61948 | 37155 ft | 437 kts | 338° |
| 2026-05-05 17:08 | 47.59544 | 74.58778 | 37158 ft | 437 kts | 338° |
| 2026-05-05 17:08 | 47.65200 | 74.55615 | 37159 ft | 438 kts | 338° |
| 2026-05-05 17:09 | 47.70916 | 74.52405 | 37165 ft | 438 kts | 338° |
| 2026-05-05 17:09 | 47.76599 | 74.49202 | 37164 ft | 439 kts | 338° |
| 2026-05-05 17:10 | 47.82287 | 74.45988 | 36773 ft | 439 kts | 338° |
| 2026-05-05 17:10 | 47.85140 | 74.44373 | 36462 ft | 440 kts | 338° |
| 2026-05-05 17:10 | 47.88002 | 74.42751 | 36218 ft | 440 kts | 337° |
| 2026-05-05 17:11 | 47.93696 | 74.39518 | 36165 ft | 441 kts | 337° |
| 2026-05-05 17:11 | 47.99402 | 74.36269 | 36180 ft | 441 kts | 337° |
| 2026-05-05 17:12 | 48.05106 | 74.33011 | 36184 ft | 441 kts | 336° |
| 2026-05-05 17:12 | 48.10833 | 74.29733 | 36177 ft | 442 kts | 336° |
| 2026-05-05 17:13 | 48.16583 | 74.26461 | 36175 ft | 442 kts | 337° |
| 2026-05-05 17:13 | 48.22311 | 74.23233 | 36179 ft | 442 kts | 336° |
| 2026-05-05 17:14 | 48.28052 | 74.19982 | 36180 ft | 442 kts | 336° |
| 2026-05-05 17:14 | 48.33799 | 74.16715 | 36181 ft | 442 kts | 336° |
| 2026-05-05 17:15 | 48.39511 | 74.13460 | 36184 ft | 442 kts | 336° |
| 2026-05-05 17:15 | 48.45260 | 74.10175 | 36183 ft | 442 kts | 336° |
| 2026-05-05 17:16 | 48.51000 | 74.06885 | 36183 ft | 443 kts | 336° |
| 2026-05-05 17:16 | 48.56722 | 74.03598 | 36184 ft | 442 kts | 336° |
| 2026-05-05 17:17 | 48.62455 | 74.00299 | 36180 ft | 443 kts | 336° |
| 2026-05-05 17:17 | 48.68187 | 73.96989 | 36175 ft | 443 kts | 336° |
| 2026-05-05 17:18 | 48.73933 | 73.93665 | 36177 ft | 443 kts | 336° |
| 2026-05-05 17:18 | 48.79671 | 73.90335 | 36172 ft | 443 kts | 336° |
| 2026-05-05 17:19 | 48.85428 | 73.86983 | 36175 ft | 443 kts | 336° |
| 2026-05-05 17:19 | 48.91132 | 73.83655 | 36172 ft | 443 kts | 336° |
| 2026-05-05 17:20 | 48.96866 | 73.80300 | 36173 ft | 443 kts | 336° |
| 2026-05-05 17:20 | 49.02620 | 73.76929 | 36169 ft | 442 kts | 336° |
| 2026-05-05 17:21 | 49.08335 | 73.73566 | 36166 ft | 442 kts | 335° |
| 2026-05-05 17:22 | 49.16914 | 73.68491 | 36158 ft | 443 kts | 335° |
| 2026-05-05 17:22 | 49.22617 | 73.65107 | 36159 ft | 443 kts | 335° |
| 2026-05-05 17:23 | 49.28341 | 73.61702 | 36147 ft | 443 kts | 335° |
| 2026-05-05 17:23 | 49.34084 | 73.58276 | 36141 ft | 443 kts | 335° |
| 2026-05-05 17:24 | 49.39822 | 73.54844 | 36129 ft | 443 kts | 335° |